Time;durP1;ratioP1;P1;durP2;ratioP2;P2;SDS_P1;SDS_P2;PMS_P1;PMS_P2;Temp;Humidity;BMP_temperature;BMP_pressure;BME280_temperature;BME280_humidity;BME280_pressure;Samples;Min_cycle;Max_cycle;Signal;HPM_P1;HPM_P2
2021/08/03 00:01:33;;;;;;;21.73;20.40;;;15.60;89.70;;;;;;5043574;28;20455;-73
2021/08/03 00:04:07;;;;;;;20.70;19.60;;;15.60;89.90;;;;;;5041219;28;20949;-73
2021/08/03 00:06:36;;;;;;;21.07;19.87;;;15.60;89.60;;;;;;5035236;28;20562;-73
2021/08/03 00:09:03;;;;;;;21.43;19.60;;;15.60;89.70;;;;;;5042195;28;20464;-73
2021/08/03 00:11:30;;;;;;;20.40;19.40;;;15.60;89.80;;;;;;5042390;28;20830;-73
2021/08/03 00:13:59;;;;;;;21.03;19.93;;;15.70;89.60;;;;;;5044213;28;20463;-73
2021/08/03 00:16:28;;;;;;;20.50;19.40;;;15.70;89.40;;;;;;5042946;28;20485;-73
2021/08/03 00:18:56;;;;;;;20.77;19.60;;;15.70;89.10;;;;;;5036995;28;20554;-73
2021/08/03 00:21:23;;;;;;;20.57;19.57;;;15.70;89.20;;;;;;5040439;28;20451;-73
2021/08/03 00:23:49;;;;;;;20.80;19.30;;;15.70;89.20;;;;;;5032713;28;21071;-73
2021/08/03 00:26:17;;;;;;;20.00;19.00;;;15.70;89.40;;;;;;5046125;28;20489;-73
2021/08/03 00:28:46;;;;;;;19.90;18.80;;;15.70;89.20;;;;;;5041364;28;20459;-73
2021/08/03 00:31:17;;;;;;;19.97;18.80;;;15.70;89.20;;;;;;5040128;28;20533;-73
2021/08/03 00:33:47;;;;;;;19.77;18.67;;;15.70;89.10;;;;;;5041525;28;20470;-73
2021/08/03 00:36:14;;;;;;;20.00;19.10;;;15.70;88.90;;;;;;5033310;28;20860;-73
2021/08/03 00:38:42;;;;;;;19.47;18.57;;;15.70;88.90;;;;;;5041895;28;20633;-73
2021/08/03 00:41:12;;;;;;;20.47;19.27;;;15.70;88.70;;;;;;5044811;28;20461;-73
2021/08/03 00:43:39;;;;;;;20.37;19.17;;;15.70;88.80;;;;;;5042773;28;20808;-73
2021/08/03 00:46:06;;;;;;;20.50;19.40;;;15.70;88.70;;;;;;5044868;28;20479;-73
2021/08/03 00:48:33;;;;;;;20.13;19.13;;;15.80;88.80;;;;;;5044776;28;20534;-73
2021/08/03 00:51:02;;;;;;;19.97;18.90;;;15.70;88.60;;;;;;5043849;28;20484;-73
2021/08/03 00:53:30;;;;;;;20.23;19.20;;;15.70;88.90;;;;;;5046874;28;20490;-73
2021/08/03 00:55:58;;;;;;;20.10;19.00;;;15.80;88.70;;;;;;5047494;28;20487;-73
2021/08/03 00:58:25;;;;;;;19.77;18.87;;;15.80;88.70;;;;;;5045334;28;20918;-73
2021/08/03 01:00:53;;;;;;;20.30;19.27;;;15.80;88.60;;;;;;5040356;28;20463;-73
2021/08/03 01:03:20;;;;;;;21.20;20.13;;;15.80;88.50;;;;;;5039514;28;20500;-73
2021/08/03 01:05:55;;;;;;;20.03;18.97;;;15.80;88.60;;;;;;5046818;28;20466;-73
2021/08/03 01:08:29;;;;;;;20.47;19.47;;;15.80;88.50;;;;;;5045524;28;20465;-73
2021/08/03 01:11:02;;;;;;;20.80;19.80;;;15.80;88.70;;;;;;5045438;28;20459;-73
2021/08/03 01:13:41;;;;;;;20.00;18.90;;;15.80;88.70;;;;;;5045767;28;20462;-73
2021/08/03 01:16:18;;;;;;;20.23;19.23;;;15.90;88.20;;;;;;5049358;28;20513;-73
2021/08/03 01:18:54;;;;;;;20.00;19.00;;;16.00;88.00;;;;;;5041405;28;20462;-73
2021/08/03 01:21:43;;;;;;;20.50;19.40;;;16.00;87.90;;;;;;5046093;28;20454;-73
2021/08/03 01:25:00;;;;;;;20.30;19.23;;;16.00;87.90;;;;;;5042737;28;20463;-73
2021/08/03 01:27:43;;;;;;;20.50;19.50;;;15.90;88.00;;;;;;5039780;28;20845;-73
2021/08/03 01:30:13;;;;;;;20.80;19.70;;;15.90;88.30;;;;;;5043731;28;20466;-73
2021/08/03 01:32:44;;;;;;;20.43;19.43;;;15.80;88.40;;;;;;5046116;28;20478;-73
2021/08/03 01:35:12;;;;;;;20.20;19.10;;;15.80;88.40;;;;;;5037551;28;20984;-73
2021/08/03 01:37:40;;;;;;;20.40;19.30;;;15.80;88.20;;;;;;5039529;28;20692;-73
2021/08/03 01:40:12;;;;;;;20.87;19.77;;;15.80;88.10;;;;;;5043122;28;20550;-73
2021/08/03 01:42:43;;;;;;;20.40;19.30;;;15.80;88.10;;;;;;5048652;28;20458;-73
2021/08/03 01:45:12;;;;;;;20.50;19.50;;;15.70;88.30;;;;;;5048943;28;20984;-73
2021/08/03 01:47:40;;;;;;;20.40;19.30;;;15.80;88.10;;;;;;5040976;28;21006;-73
2021/08/03 01:50:09;;;;;;;20.07;19.07;;;15.70;88.00;;;;;;5036685;28;20462;-73
2021/08/03 01:52:37;;;;;;;21.07;19.77;;;15.70;88.30;;;;;;5044821;28;20571;-73
2021/08/03 01:55:05;;;;;;;19.90;18.87;;;15.60;88.40;;;;;;5047607;28;20501;-73
2021/08/03 01:57:33;;;;;;;20.23;19.33;;;15.50;88.60;;;;;;5045399;28;20573;-73
2021/08/03 02:00:02;;;;;;;20.10;19.00;;;15.60;88.60;;;;;;5047359;28;20574;-73
2021/08/03 02:02:31;;;;;;;20.80;19.70;;;15.60;88.50;;;;;;5038842;28;20535;-73
2021/08/03 02:04:58;;;;;;;20.80;19.73;;;15.50;88.50;;;;;;5035131;28;20542;-73
2021/08/03 02:07:27;;;;;;;20.47;19.43;;;15.60;88.20;;;;;;5032692;28;20489;-73
2021/08/03 02:09:56;;;;;;;20.10;19.10;;;15.60;88.20;;;;;;5036594;28;20474;-73
2021/08/03 02:12:24;;;;;;;20.40;19.33;;;15.60;88.30;;;;;;5040963;28;20844;-73
2021/08/03 02:14:51;;;;;;;19.80;18.90;;;15.50;88.40;;;;;;5044010;28;20999;-73
2021/08/03 02:17:20;;;;;;;19.33;18.43;;;15.60;88.30;;;;;;5038223;28;20472;-73
2021/08/03 02:19:49;;;;;;;19.70;18.70;;;15.60;88.40;;;;;;5042587;28;20459;-73
2021/08/03 02:22:17;;;;;;;19.63;18.43;;;15.60;88.60;;;;;;5039914;28;21066;-73
2021/08/03 02:24:44;;;;;;;19.13;18.13;;;15.60;88.60;;;;;;5048046;28;20835;-73
2021/08/03 02:27:12;;;;;;;20.10;19.20;;;15.50;88.90;;;;;;5047490;28;20836;-73
2021/08/03 02:29:42;;;;;;;20.20;19.20;;;15.60;88.80;;;;;;5044688;28;20461;-73
2021/08/03 02:32:15;;;;;;;19.93;18.90;;;15.60;88.70;;;;;;5029136;28;20471;-73
2021/08/03 02:34:48;;;;;;;20.67;19.30;;;15.60;88.90;;;;;;5036232;28;20451;-73
2021/08/03 02:37:23;;;;;;;22.20;20.97;;;15.60;88.40;;;;;;5048155;28;20835;-73
2021/08/03 02:39:53;;;;;;;20.30;19.20;;;15.60;88.40;;;;;;5038539;28;20463;-73
2021/08/03 02:42:22;;;;;;;19.50;18.50;;;15.60;88.30;;;;;;5047924;28;20887;-73
2021/08/03 02:44:54;;;;;;;19.77;18.67;;;15.60;88.00;;;;;;5042396;28;20459;-73
2021/08/03 02:47:27;;;;;;;20.50;19.37;;;15.60;88.20;;;;;;5036504;28;20581;-73
2021/08/03 02:49:54;;;;;;;20.47;19.47;;;15.70;88.00;;;;;;5036742;28;20494;-73
2021/08/03 02:52:28;;;;;;;22.97;21.83;;;15.60;88.20;;;;;;5044236;28;20483;-73
2021/08/03 02:54:59;;;;;;;21.27;20.07;;;15.70;88.00;;;;;;5046453;28;20948;-73
2021/08/03 02:57:28;;;;;;;20.03;19.03;;;15.70;87.80;;;;;;5043504;28;20475;-73
2021/08/03 03:00:01;;;;;;;19.20;18.30;;;15.70;87.90;;;;;;5046232;28;20548;-73
2021/08/03 03:02:30;;;;;;;19.93;18.83;;;15.70;87.60;;;;;;5038606;28;20463;-73
2021/08/03 03:05:01;;;;;;;20.10;19.10;;;15.70;87.50;;;;;;5048788;28;20461;-72
2021/08/03 03:07:33;;;;;;;20.83;19.73;;;15.70;87.60;;;;;;5043475;28;20477;-73
2021/08/03 03:10:02;;;;;;;23.80;22.60;;;15.70;87.60;;;;;;5045386;28;20465;-73
2021/08/03 03:12:32;;;;;;;24.60;23.13;;;15.60;87.80;;;;;;5041565;28;20486;-73
2021/08/03 03:15:02;;;;;;;20.73;19.63;;;15.60;87.90;;;;;;5044468;28;20465;-73
2021/08/03 03:17:34;;;;;;;21.50;20.30;;;15.60;88.00;;;;;;5046610;28;20479;-73
2021/08/03 03:20:02;;;;;;;20.30;19.30;;;15.60;87.90;;;;;;5042954;28;21016;-73
2021/08/03 03:22:34;;;;;;;21.97;20.77;;;15.60;88.20;;;;;;5045268;28;20963;-73
2021/08/03 03:25:02;;;;;;;20.27;19.27;;;15.60;88.20;;;;;;5047016;28;20458;-73
2021/08/03 03:27:30;;;;;;;24.33;22.70;;;15.60;88.10;;;;;;5046410;28;20569;-73
2021/08/03 03:29:58;;;;;;;21.67;20.47;;;15.60;88.10;;;;;;5031706;28;21046;-73
2021/08/03 03:32:30;;;;;;;22.33;21.20;;;15.50;88.10;;;;;;5026799;28;20490;-73
2021/08/03 03:34:58;;;;;;;22.03;20.83;;;15.50;88.00;;;;;;5040843;28;20451;-73
2021/08/03 03:37:27;;;;;;;23.30;21.90;;;15.50;87.80;;;;;;5047537;28;20949;-73
2021/08/03 03:39:57;;;;;;;24.60;23.20;;;15.50;88.10;;;;;;5044746;28;21043;-73
2021/08/03 03:42:29;;;;;;;24.07;22.77;;;15.40;88.40;;;;;;5033603;28;21041;-73
2021/08/03 03:44:56;;;;;;;21.07;19.97;;;15.40;88.30;;;;;;5035900;28;20965;-73
2021/08/03 03:47:29;;;;;;;24.60;23.30;;;15.40;88.30;;;;;;5037562;28;20479;-73
2021/08/03 03:50:01;;;;;;;21.10;20.00;;;15.50;88.40;;;;;;5038120;28;20457;-73
2021/08/03 03:52:35;;;;;;;22.60;21.40;;;15.40;88.90;;;;;;5038736;28;20489;-73
2021/08/03 03:55:05;;;;;;;24.50;23.10;;;15.50;88.70;;;;;;5045020;28;20462;-73
2021/08/03 03:57:32;;;;;;;23.87;22.57;;;15.40;88.60;;;;;;5044142;28;20818;-73
2021/08/03 04:00:00;;;;;;;21.93;20.73;;;15.40;88.50;;;;;;5033323;28;20573;-72
2021/08/03 04:02:29;;;;;;;22.10;21.00;;;15.40;88.60;;;;;;5025477;28;20554;-72
2021/08/03 04:05:01;;;;;;;21.80;20.70;;;15.40;89.40;;;;;;5040133;28;20462;-73
2021/08/03 04:07:30;;;;;;;24.17;22.87;;;15.40;88.90;;;;;;5041815;28;20477;-72
2021/08/03 04:10:09;;;;;;;21.90;20.70;;;15.50;88.80;;;;;;5041110;28;20451;-73
2021/08/03 04:12:36;;;;;;;23.63;22.43;;;15.40;88.90;;;;;;5042893;28;20480;-73
2021/08/03 04:15:04;;;;;;;22.10;20.60;;;15.40;88.70;;;;;;5043124;28;20940;-73
2021/08/03 04:17:31;;;;;;;25.20;23.80;;;15.40;88.90;;;;;;5046014;28;20483;-73
2021/08/03 04:19:58;;;;;;;23.40;21.80;;;15.40;89.10;;;;;;5043526;28;20451;-73
2021/08/03 04:22:25;;;;;;;21.63;20.43;;;15.40;88.90;;;;;;5034535;28;20476;-73
2021/08/03 04:24:52;;;;;;;22.83;21.73;;;15.50;88.90;;;;;;5040170;28;20455;-73
2021/08/03 04:27:20;;;;;;;23.30;22.10;;;15.50;88.60;;;;;;5036575;28;20494;-73
2021/08/03 04:29:47;;;;;;;22.13;20.83;;;15.50;88.70;;;;;;5042732;28;20534;-73
2021/08/03 04:32:14;;;;;;;25.13;23.47;;;15.50;88.80;;;;;;5043794;28;20474;-73
2021/08/03 04:34:41;;;;;;;23.37;21.90;;;15.60;88.40;;;;;;5044146;28;20525;-73
2021/08/03 04:37:08;;;;;;;24.47;22.83;;;15.60;88.20;;;;;;5044896;28;20562;-73
2021/08/03 04:39:36;;;;;;;22.60;21.50;;;15.60;87.90;;;;;;5042589;28;20542;-73
2021/08/03 04:42:04;;;;;;;22.07;20.97;;;15.40;88.10;;;;;;5043275;28;20546;-77
2021/08/03 04:44:32;;;;;;;22.07;20.67;;;15.40;88.30;;;;;;5038340;28;20479;-72
2021/08/03 04:46:59;;;;;;;23.07;21.87;;;15.50;88.30;;;;;;5038747;28;20570;-72
2021/08/03 04:49:26;;;;;;;22.50;21.30;;;15.50;88.20;;;;;;5037051;28;20486;-72
2021/08/03 04:51:53;;;;;;;23.23;21.83;;;15.50;88.30;;;;;;5040705;28;20467;-72
2021/08/03 04:54:20;;;;;;;22.20;20.97;;;15.50;88.00;;;;;;5040677;28;20486;-72
2021/08/03 04:56:46;;;;;;;22.40;21.20;;;15.60;87.70;;;;;;5029792;28;20569;-72
2021/08/03 04:59:13;;;;;;;23.57;22.27;;;15.50;87.90;;;;;;5043103;28;20463;-72
2021/08/03 05:01:42;;;;;;;22.73;21.53;;;15.50;87.70;;;;;;5037055;28;20452;-72
2021/08/03 05:04:09;;;;;;;23.23;21.50;;;15.50;87.70;;;;;;5034431;28;20461;-71
2021/08/03 05:06:36;;;;;;;23.77;22.37;;;15.60;87.30;;;;;;5042660;28;20483;-72
2021/08/03 05:09:03;;;;;;;22.57;21.30;;;15.80;86.90;;;;;;5043715;28;20447;-72
2021/08/03 05:11:30;;;;;;;22.27;20.80;;;15.80;86.70;;;;;;5045646;28;20466;-72
2021/08/03 05:13:57;;;;;;;24.47;23.00;;;15.80;86.60;;;;;;5044847;28;20479;-72
2021/08/03 05:16:25;;;;;;;22.43;21.23;;;15.80;86.30;;;;;;5042715;28;20489;-72
2021/08/03 05:18:53;;;;;;;25.20;24.00;;;15.90;86.00;;;;;;5032338;28;20455;-71
2021/08/03 05:21:20;;;;;;;22.87;21.57;;;15.90;85.80;;;;;;5034463;28;20466;-71
2021/08/03 05:23:47;;;;;;;22.97;21.67;;;15.80;85.80;;;;;;5032106;28;20454;-71
2021/08/03 05:26:14;;;;;;;23.00;21.60;;;15.80;85.90;;;;;;5041677;28;20482;-71
2021/08/03 05:28:41;;;;;;;23.40;22.10;;;15.80;85.60;;;;;;5039139;28;20478;-71
2021/08/03 05:31:08;;;;;;;25.83;24.33;;;15.90;85.90;;;;;;5029584;28;20461;-71
2021/08/03 05:33:35;;;;;;;24.63;23.13;;;16.00;85.80;;;;;;5039338;28;20497;-71
2021/08/03 05:36:04;;;;;;;23.90;22.67;;;16.10;85.60;;;;;;5043063;28;20569;-72
2021/08/03 05:38:31;;;;;;;23.77;22.57;;;16.20;85.40;;;;;;5039867;28;20528;-72
2021/08/03 05:40:57;;;;;;;24.60;23.20;;;16.20;85.50;;;;;;5043411;28;20960;-72
2021/08/03 05:43:24;;;;;;;24.77;23.27;;;16.40;86.00;;;;;;5042554;28;21122;-72
2021/08/03 05:45:51;;;;;;;25.90;24.40;;;16.40;85.40;;;;;;5044759;28;20941;-73
2021/08/03 05:48:18;;;;;;;25.73;24.33;;;16.40;85.00;;;;;;5045446;28;20554;-73
2021/08/03 05:50:45;;;;;;;25.63;23.93;;;16.50;84.80;;;;;;5040657;28;20547;-75
2021/08/03 05:53:13;;;;;;;24.17;22.60;;;16.60;84.60;;;;;;5044628;28;20482;-75
2021/08/03 05:55:41;;;;;;;27.00;25.20;;;16.70;84.00;;;;;;5040942;28;22142;-75
2021/08/03 05:58:11;;;;;;;24.03;22.63;;;16.70;83.70;;;;;;5049867;28;20457;-76
2021/08/03 06:00:38;;;;;;;24.40;22.80;;;16.60;83.90;;;;;;5045964;28;20561;-76
2021/08/03 06:03:08;;;;;;;26.00;24.40;;;16.60;83.30;;;;;;5048707;28;20454;-74
2021/08/03 06:05:37;;;;;;;25.52;23.88;;;16.80;83.40;;;;;;5049980;28;20549;-73
2021/08/03 06:08:06;;;;;;;23.43;22.23;;;17.00;83.50;;;;;;5046252;28;20297;-73
2021/08/03 06:10:36;;;;;;;27.30;25.77;;;17.10;82.80;;;;;;5041566;28;20518;-73
2021/08/03 06:13:06;;;;;;;25.40;24.00;;;17.30;82.30;;;;;;5047104;28;20482;-73
2021/08/03 06:15:39;;;;;;;25.40;24.00;;;17.50;82.10;;;;;;5039133;28;20457;-73
2021/08/03 06:18:13;;;;;;;25.80;24.20;;;17.60;81.60;;;;;;5046574;28;20463;-73
2021/08/03 06:20:41;;;;;;;26.97;24.20;;;17.80;80.50;;;;;;5046364;28;20462;-72
2021/08/03 06:23:12;;;;;;;25.30;23.90;;;17.80;80.00;;;;;;5040435;28;20466;-73
2021/08/03 06:25:41;;;;;;;28.30;26.47;;;17.90;79.40;;;;;;5045695;28;20466;-73
2021/08/03 06:28:09;;;;;;;26.97;25.30;;;17.90;79.60;;;;;;5030504;28;20567;-72
2021/08/03 06:30:38;;;;;;;26.63;25.23;;;18.00;79.00;;;;;;5033870;28;20459;-72
2021/08/03 06:33:06;;;;;;;29.47;27.87;;;18.20;78.50;;;;;;5042535;28;20493;-72
2021/08/03 06:35:33;;;;;;;26.90;25.40;;;18.10;77.80;;;;;;5041004;28;20470;-72
2021/08/03 06:38:00;;;;;;;27.53;25.63;;;18.20;77.80;;;;;;5041987;28;20481;-72
2021/08/03 06:40:30;;;;;;;26.40;24.90;;;18.40;77.30;;;;;;5040519;28;20842;-72
2021/08/03 06:43:07;;;;;;;27.10;25.60;;;18.50;76.90;;;;;;5047948;28;20451;-73
2021/08/03 06:45:35;;;;;;;27.80;26.10;;;18.70;76.70;;;;;;5048554;28;20473;-72
2021/08/03 06:48:06;;;;;;;27.27;25.67;;;18.90;76.20;;;;;;5033835;28;20479;-72
2021/08/03 06:50:35;;;;;;;27.40;25.90;;;19.10;75.50;;;;;;5043172;28;20471;-73
2021/08/03 06:53:06;;;;;;;26.73;25.30;;;19.30;74.50;;;;;;5043448;28;20479;-73
2021/08/03 06:55:35;;;;;;;27.90;26.00;;;19.40;73.50;;;;;;5042680;28;20512;-72
2021/08/03 06:58:05;;;;;;;27.50;26.00;;;19.70;73.00;;;;;;5048482;28;20485;-73
2021/08/03 07:00:38;;;;;;;29.13;27.63;;;19.90;72.60;;;;;;5045641;28;20478;-72
2021/08/03 07:03:07;;;;;;;28.13;26.40;;;20.10;71.20;;;;;;5048737;28;20452;-73
2021/08/03 07:05:37;;;;;;;28.13;26.53;;;20.30;70.40;;;;;;5043966;28;20453;-73
2021/08/03 07:08:05;;;;;;;27.60;25.93;;;20.20;70.00;;;;;;5044616;28;20448;-72
2021/08/03 07:10:33;;;;;;;29.07;27.17;;;20.30;70.30;;;;;;5040435;28;20469;-73
2021/08/03 07:13:00;;;;;;;27.03;25.60;;;20.40;69.70;;;;;;5047638;28;20463;-73
2021/08/03 07:15:28;;;;;;;27.43;25.83;;;20.50;69.30;;;;;;5048514;28;20553;-73
2021/08/03 07:17:57;;;;;;;26.57;24.97;;;20.60;69.10;;;;;;5045259;28;20493;-73
2021/08/03 07:20:24;;;;;;;28.50;26.90;;;20.70;68.90;;;;;;5047065;28;20466;-73
2021/08/03 07:22:51;;;;;;;29.03;27.20;;;20.80;68.20;;;;;;5048159;28;20984;-73
2021/08/03 07:25:19;;;;;;;27.00;25.50;;;21.00;68.00;;;;;;5048000;28;20450;-72
2021/08/03 07:27:46;;;;;;;29.30;27.67;;;21.00;67.00;;;;;;5048085;28;20572;-72
2021/08/03 07:30:13;;;;;;;27.33;25.73;;;21.10;67.20;;;;;;5047708;28;20537;-73
2021/08/03 07:32:42;;;;;;;27.90;26.33;;;21.20;67.00;;;;;;5044663;28;20470;-73
2021/08/03 07:35:10;;;;;;;28.90;27.40;;;21.30;66.70;;;;;;5040243;28;20570;-74
2021/08/03 07:37:38;;;;;;;28.40;26.70;;;21.30;66.80;;;;;;5045554;28;21027;-73
2021/08/03 07:40:07;;;;;;;28.73;27.23;;;21.40;66.10;;;;;;5043312;28;22481;-73
2021/08/03 07:42:34;;;;;;;27.13;25.63;;;21.60;66.90;;;;;;5042872;28;21067;-74
2021/08/03 07:45:01;;;;;;;30.17;28.67;;;21.60;65.90;;;;;;5041755;28;20454;-75
2021/08/03 07:47:28;;;;;;;29.33;27.33;;;21.70;65.80;;;;;;5042540;28;20567;-74
2021/08/03 07:49:57;;;;;;;28.30;26.77;;;21.70;65.90;;;;;;5043560;28;20460;-75
2021/08/03 07:52:25;;;;;;;29.10;27.60;;;21.70;66.00;;;;;;5039738;28;20497;-77
2021/08/03 07:54:52;;;;;;;29.40;27.80;;;21.70;66.10;;;;;;5047238;28;20475;-73
2021/08/03 07:57:19;;;;;;;30.23;28.50;;;21.80;65.80;;;;;;5043156;28;20482;-72
2021/08/03 07:59:46;;;;;;;27.50;26.00;;;21.90;65.90;;;;;;5036104;28;20539;-72
2021/08/03 08:02:12;;;;;;;28.17;26.60;;;22.00;65.70;;;;;;5045453;28;20462;-72
2021/08/03 08:04:39;;;;;;;28.53;26.83;;;22.20;65.30;;;;;;5047380;28;20453;-73
2021/08/03 08:07:07;;;;;;;27.30;25.80;;;22.30;65.00;;;;;;5034123;28;20472;-72
2021/08/03 08:09:34;;;;;;;28.70;26.90;;;22.30;64.50;;;;;;5048490;28;20455;-73
2021/08/03 08:12:01;;;;;;;28.47;26.87;;;22.40;65.30;;;;;;5047942;28;20467;-72
2021/08/03 08:14:30;;;;;;;29.97;28.17;;;22.50;65.20;;;;;;5047213;28;20515;-73
2021/08/03 08:16:57;;;;;;;28.90;27.30;;;22.50;64.90;;;;;;5045682;28;20478;-73
2021/08/03 08:19:24;;;;;;;27.60;26.10;;;22.60;64.40;;;;;;5048462;28;20473;-73
2021/08/03 08:21:51;;;;;;;29.63;27.67;;;22.60;64.50;;;;;;5043633;28;20490;-72
2021/08/03 08:24:20;;;;;;;28.57;26.67;;;22.70;65.10;;;;;;5039516;28;20453;-73
2021/08/03 08:26:47;;;;;;;28.20;26.27;;;22.90;64.60;;;;;;5044043;28;20996;-73
2021/08/03 08:29:16;;;;;;;28.80;27.20;;;22.80;64.10;;;;;;5031401;28;20471;-73
2021/08/03 08:31:43;;;;;;;29.07;27.37;;;22.80;64.30;;;;;;5038761;28;20459;-73
2021/08/03 08:34:10;;;;;;;27.77;26.27;;;22.80;64.30;;;;;;5034960;28;20505;-73
2021/08/03 08:36:37;;;;;;;28.93;27.23;;;22.80;64.50;;;;;;5044586;28;20506;-73
2021/08/03 08:39:05;;;;;;;31.53;29.40;;;22.90;64.10;;;;;;5048599;28;20534;-73
2021/08/03 08:41:35;;;;;;;29.50;27.63;;;23.00;64.50;;;;;;5042681;28;20466;-73
2021/08/03 08:44:03;;;;;;;29.10;27.50;;;23.10;64.20;;;;;;5042154;28;21017;-72
2021/08/03 08:46:32;;;;;;;29.07;27.27;;;23.20;64.00;;;;;;5039223;28;20482;-72
2021/08/03 08:49:00;;;;;;;27.77;26.07;;;23.40;64.30;;;;;;5043923;28;20461;-72
2021/08/03 08:51:27;;;;;;;27.90;26.30;;;23.50;64.00;;;;;;5040056;28;20992;-72
2021/08/03 08:53:54;;;;;;;26.77;25.30;;;23.50;63.60;;;;;;5038253;28;20475;-72
2021/08/03 08:56:21;;;;;;;27.70;25.97;;;23.50;63.30;;;;;;5044442;28;20909;-72
2021/08/03 08:58:49;;;;;;;29.17;27.43;;;23.50;63.90;;;;;;5045563;28;20869;-72
2021/08/03 09:01:16;;;;;;;30.30;28.60;;;23.70;63.10;;;;;;5042257;28;20463;-72
2021/08/03 09:03:44;;;;;;;31.20;29.40;;;23.80;63.00;;;;;;5039531;28;20509;-72
2021/08/03 09:06:11;;;;;;;29.73;27.93;;;24.00;62.00;;;;;;5045688;28;20481;-72
2021/08/03 09:08:40;;;;;;;29.40;27.70;;;24.20;62.40;;;;;;5051590;28;20451;-72
2021/08/03 09:11:11;;;;;;;30.53;28.87;;;24.30;61.90;;;;;;5038375;28;20770;-72
2021/08/03 09:13:50;;;;;;;30.37;28.67;;;23.90;60.40;;;;;;5050263;28;20478;-72
2021/08/03 09:16:18;;;;;;;28.77;27.07;;;23.50;61.30;;;;;;5050445;28;20493;-73
2021/08/03 09:18:46;;;;;;;28.27;26.67;;;22.80;62.80;;;;;;5051566;28;20459;-72
2021/08/03 09:21:25;;;;;;;28.17;26.37;;;22.00;64.60;;;;;;5050332;28;20473;-72
2021/08/03 09:23:53;;;;;;;28.63;26.93;;;21.80;65.70;;;;;;5031896;28;20459;-72
2021/08/03 09:26:21;;;;;;;28.70;27.10;;;21.80;65.50;;;;;;5038647;28;20467;-72
2021/08/03 09:29:04;;;;;;;31.63;29.73;;;21.80;66.40;;;;;;5048804;28;20944;-72
2021/08/03 09:31:33;;;;;;;29.43;27.83;;;21.80;67.60;;;;;;5041783;28;20481;-73
2021/08/03 09:34:01;;;;;;;28.00;26.37;;;21.40;68.10;;;;;;5042212;28;20490;-72
2021/08/03 09:36:49;;;;;;;29.20;27.50;;;20.70;71.30;;;;;;5033685;28;20485;-72
2021/08/03 09:39:41;;;;;;;30.00;28.40;;;20.20;73.30;;;;;;5045126;28;20468;-72
2021/08/03 09:42:12;;;;;;;28.03;26.53;;;19.40;72.40;;;;;;5040183;28;20960;-72
2021/08/03 09:44:46;;;;;;;28.30;26.73;;;18.80;75.40;;;;;;5035889;28;21047;-72
2021/08/03 09:47:13;;;;;;;30.17;28.33;;;18.30;77.10;;;;;;5039713;28;20553;-72
2021/08/03 09:49:44;;;;;;;27.73;26.30;;;18.20;78.50;;;;;;5036661;28;20807;-72
2021/08/03 09:52:12;;;;;;;28.50;26.97;;;18.30;78.20;;;;;;5040049;28;20458;-72
2021/08/03 09:54:40;;;;;;;29.07;27.47;;;18.40;78.90;;;;;;5044827;28;21091;-72
2021/08/03 09:57:20;;;;;;;26.43;25.03;;;18.60;78.70;;;;;;5038072;28;20485;-72
2021/08/03 09:59:49;;;;;;;30.37;28.87;;;18.90;78.10;;;;;;5048648;28;20643;-72
2021/08/03 10:02:18;;;;;;;29.77;28.23;;;18.60;78.60;;;;;;5043585;28;20996;-72
2021/08/03 10:04:46;;;;;;;29.40;27.70;;;18.70;78.30;;;;;;5043951;28;20443;-72
2021/08/03 10:07:14;;;;;;;27.37;25.97;;;18.70;78.60;;;;;;5048379;28;20478;-72
2021/08/03 10:09:42;;;;;;;32.17;30.47;;;18.80;79.00;;;;;;5043702;28;20957;-72
2021/08/03 10:12:10;;;;;;;28.47;26.80;;;18.60;79.40;;;;;;5046177;28;20459;-72
2021/08/03 10:14:37;;;;;;;28.90;27.30;;;18.40;80.70;;;;;;5041813;28;20583;-72
2021/08/03 10:17:05;;;;;;;95.00;87.57;;;18.10;81.20;;;;;;5044022;28;20481;-72
2021/08/03 10:19:36;;;;;;;33.37;31.67;;;18.10;82.20;;;;;;5043467;28;20455;-72
2021/08/03 10:22:09;;;;;;;28.37;26.87;;;18.30;82.40;;;;;;5040817;28;20459;-72
2021/08/03 10:24:42;;;;;;;28.27;26.50;;;18.70;81.40;;;;;;5035654;28;20470;-72
2021/08/03 10:27:11;;;;;;;28.10;26.60;;;18.80;80.00;;;;;;5038776;28;21072;-72
2021/08/03 10:29:48;;;;;;;30.53;28.70;;;18.90;79.70;;;;;;5043947;28;20462;-72
2021/08/03 10:32:37;;;;;;;87.53;80.53;;;19.30;79.00;;;;;;5038944;28;20527;-72
2021/08/03 10:35:06;;;;;;;45.40;42.27;;;19.70;77.50;;;;;;5035544;28;20480;-73
2021/08/03 10:38:08;;;;;;;30.33;28.63;;;19.90;77.20;;;;;;5032625;28;20486;-73
2021/08/03 10:41:01;;;;;;;104.33;96.50;;;20.00;75.70;;;;;;5045504;28;20458;-72
2021/08/03 10:43:38;;;;;;;147.07;136.43;;;20.10;76.00;;;;;;5049905;28;20462;-72
2021/08/03 10:46:39;;;;;;;206.37;190.53;;;20.30;76.40;;;;;;5040168;28;20843;-72
2021/08/03 10:49:08;;;;;;;58.73;54.83;;;20.50;76.50;;;;;;5043449;28;20968;-72
2021/08/03 10:51:47;;;;;;;676.63;619.53;;;20.70;75.40;;;;;;5032787;28;20463;-72
2021/08/03 10:54:16;;;;;;;220.33;204.50;;;21.10;75.80;;;;;;5040081;28;20825;-73
2021/08/03 10:57:22;;;;;;;94.27;88.23;;;21.40;74.60;;;;;;5040848;28;20471;-73
2021/08/03 11:00:03;;;;;;;60.13;55.93;;;21.60;73.20;;;;;;5031017;28;20459;-73
2021/08/03 11:02:47;;;;;;;138.47;128.87;;;21.60;72.60;;;;;;5041998;28;20460;-73
2021/08/03 11:05:34;;;;;;;44.47;41.93;;;21.70;71.70;;;;;;5039944;28;20489;-73
2021/08/03 11:08:31;;;;;;;28.90;27.30;;;21.90;71.20;;;;;;5044209;28;21154;-73
2021/08/03 11:11:06;;;;;;;33.67;31.77;;;22.00;70.60;;;;;;4980867;28;20457;-73
2021/08/03 11:13:37;;;;;;;40.83;38.33;;;22.00;71.60;;;;;;5038276;28;20469;-73
2021/08/03 11:16:05;;;;;;;29.70;28.00;;;22.00;71.70;;;;;;5048981;28;20482;-72
2021/08/03 11:18:40;;;;;;;28.57;27.07;;;22.10;70.60;;;;;;5048751;28;20940;-72
2021/08/03 11:21:12;;;;;;;29.90;28.30;;;22.10;70.80;;;;;;5042244;28;20485;-72
2021/08/03 11:24:01;;;;;;;30.60;28.90;;;22.10;71.60;;;;;;5045775;28;20457;-72
2021/08/03 11:26:33;;;;;;;30.67;28.87;;;21.80;71.60;;;;;;5039376;28;20471;-72
2021/08/03 11:29:04;;;;;;;30.20;28.50;;;21.60;72.60;;;;;;5038983;28;20466;-72
2021/08/03 11:31:55;;;;;;;29.30;27.70;;;21.50;73.20;;;;;;5033193;28;20459;-72
2021/08/03 11:34:25;;;;;;;28.63;26.93;;;21.60;73.70;;;;;;5040203;28;20941;-72
2021/08/03 11:36:59;;;;;;;28.43;26.67;;;21.60;73.70;;;;;;5034810;28;20475;-72
2021/08/03 11:39:28;;;;;;;30.70;29.20;;;21.80;73.40;;;;;;5035754;28;20937;-73
2021/08/03 11:41:56;;;;;;;28.67;26.87;;;21.90;73.30;;;;;;5046658;28;20454;-72
2021/08/03 11:44:24;;;;;;;27.83;26.23;;;22.00;73.60;;;;;;5049165;28;20477;-72
2021/08/03 11:46:58;;;;;;;34.23;32.03;;;22.30;72.70;;;;;;5034569;28;20479;-73
2021/08/03 11:49:54;;;;;;;36.87;34.47;;;22.60;71.50;;;;;;5035682;28;20538;-72
2021/08/03 11:52:24;;;;;;;85.90;78.60;;;22.70;69.30;;;;;;5026004;28;20463;-72
2021/08/03 11:54:52;;;;;;;72.97;67.43;;;22.90;68.30;;;;;;5048658;28;20493;-72
2021/08/03 11:57:30;;;;;;;99.47;90.87;;;23.00;67.30;;;;;;5047111;28;20478;-72
2021/08/03 12:00:01;;;;;;;46.27;43.10;;;23.10;67.30;;;;;;5043857;28;20469;-72
2021/08/03 12:02:28;;;;;;;46.13;42.93;;;23.20;64.80;;;;;;5040321;28;20530;-72
2021/08/03 12:05:05;;;;;;;227.87;206.17;;;23.20;65.20;;;;;;5048358;28;20524;-72
2021/08/03 12:07:33;;;;;;;228.77;204.97;;;23.30;66.50;;;;;;5047039;28;20482;-72
2021/08/03 12:10:00;;;;;;;202.67;182.53;;;23.40;65.10;;;;;;5037769;28;20451;-72
2021/08/03 12:12:28;;;;;;;38.50;35.90;;;23.40;65.40;;;;;;5046799;28;20465;-72
2021/08/03 12:15:03;;;;;;;29.50;27.90;;;23.30;65.50;;;;;;5047495;28;20487;-73
2021/08/03 12:17:30;;;;;;;29.83;28.23;;;23.20;65.50;;;;;;5047354;28;20474;-72
2021/08/03 12:20:03;;;;;;;28.20;26.70;;;23.40;65.50;;;;;;5033391;28;20709;-72
2021/08/03 12:22:31;;;;;;;26.70;25.30;;;23.50;65.70;;;;;;5047830;28;20470;-72
2021/08/03 12:25:01;;;;;;;27.50;25.90;;;23.50;65.50;;;;;;5034594;28;20872;-72
2021/08/03 12:27:38;;;;;;;27.17;25.67;;;23.50;65.30;;;;;;5047059;28;20475;-72
2021/08/03 12:30:06;;;;;;;26.37;24.97;;;23.40;64.40;;;;;;5037462;28;20458;-72
2021/08/03 12:32:37;;;;;;;28.10;26.60;;;23.50;64.10;;;;;;5045485;28;20832;-73
2021/08/03 12:35:10;;;;;;;28.60;27.00;;;23.30;65.20;;;;;;5037794;28;20545;-72
2021/08/03 12:37:37;;;;;;;27.90;26.40;;;23.20;65.30;;;;;;5036130;28;20502;-72
2021/08/03 12:40:26;;;;;;;33.93;31.73;;;23.20;65.10;;;;;;5038606;28;20453;-72
2021/08/03 12:42:54;;;;;;;28.77;27.17;;;23.20;64.60;;;;;;5047707;28;20490;-72